Willingdon, Canada
Current Conditions -  °F | °C
As of 4:28 AM on Thursday 18 Dec 2014 (Local Time) from CYED Reporting Station
Overcast Overcast  
Wind Chill: 18°   Ceiling: 100
Heat Index: 18°   Visibility: 0.12mi
Dew Point: 16°   Wind: 2mph
Humidity: 93%   Direction: 180°S
Pressure: 29.84"   Gusts: NA
Location:  53.83°N, 112.12°W
Report Text: CYED 181128Z AUTO 18002KT 1/8SM VV001 M08/M09 A2984
Loading
Personal Weather Stations






























Interactive Weather Map New forecast layout! Learn more

10-Day Weather Forecast

Advertisements
Track Severe Weather on mobile